Katharina — V2DQ5 — position and weather

sailwx.info

Track history (hours):
 
Tides and Currents Weather Stations Pressure Air Temp Water Temp Dewpoint Dewpoint Depression Visibility Wind Speed Wind Dir Waves Ship Positions

Katharina

Last reported at 2018-Jan-12 15:00 UTC. Time now 2018-Jan-21 20:40 UTC.
Position N 62°15' E 004°43'.
Warning: this ship's position is 9 days out of date.

Length 146 m; draft 7 m.

Type: Ship (hazmat cat A). MMSI: 305305000.

Date/timePositionNaut miles runAvg speedWind from/ knotsBaromVisibWave heightAir tempDewpointWater temp
2018-Jan-12 15:00N 62°15' E 004°43'510.7
2018-Jan-12 14:30N 62°19' E 004°52'510.2
2018-Jan-12 14:00N 62°22' E 005°00'510.9
2018-Jan-12 13:30N 62°26' E 005°09'510.9
2018-Jan-12 13:00N 62°29' E 005°18'611.4
2018-Jan-12 12:30N 62°33' E 005°27'611.8
2018-Jan-12 12:00N 62°37' E 005°37'611.8
2018-Jan-12 11:30N 62°41' E 005°47'611.5
2018-Jan-12 11:00N 62°44' E 005°56'611.3
2018-Jan-12 10:30N 62°48' E 006°06'611.4
2018-Jan-12 10:00N 62°52' E 006°15'611.7
2018-Jan-12 09:30N 62°56' E 006°25'611.9
2018-Jan-12 09:00N 62°60' E 006°34'612.0
2018-Jan-12 08:30N 63°02' E 006°46'612.0
2018-Jan-12 08:00N 63°06' E 006°57'612.0
2018-Jan-12 07:30N 63°09' E 007°08'612.0
2018-Jan-12 07:00N 63°12' E 007°19'611.3
2018-Jan-12 06:30N 63°15' E 007°31'611.2
2018-Jan-12 06:00N 63°13' E 007°43'4 8.1
2018-Jan-12 05:30N 63°09' E 007°42'611.8
2018-Jan-12 05:00N 63°04' E 007°41'510.8
2018-Jan-12 04:30N 62°58' E 007°44'0 0.4
2018-Jan-12 04:00N 62°58' E 007°44'0 0.0
2018-Jan-12 03:30N 62°58' E 007°44'0 0.0
2018-Jan-12 03:00N 62°58' E 007°44'0 0.0
2018-Jan-12 02:30N 62°58' E 007°44'0 0.0
2018-Jan-12 02:00N 62°58' E 007°44'0 0.0
2018-Jan-12 01:30N 62°58' E 007°44'0 0.0
2018-Jan-12 01:00N 62°58' E 007°44'0 0.2
2018-Jan-12 00:30N 62°58' E 007°44'3 5.2
2018-Jan-12 00:00N 63°01' E 007°44'511.1
2018-Jan-11 23:30N 63°06' E 007°41'611.2
2018-Jan-11 23:00N 63°12' E 007°45'4 8.9
2018-Jan-11 22:30N 63°15' E 007°38'510.6
2018-Jan-11 22:00N 63°20' E 007°35'510.4
2018-Jan-11 21:30N 63°25' E 007°36'510.9
2018-Jan-11 21:01N 63°31' E 007°38'611.4
2018-Jan-11 20:30N 63°35' E 007°45'611.1
2018-Jan-11 20:00N 63°40' E 007°51'510.7
2018-Jan-11 19:30N 63°45' E 007°58'510.6
2018-Jan-11 19:00N 63°49' E 008°04'511.0
2018-Jan-11 18:30N 63°54' E 008°11'510.6
2018-Jan-11 18:00N 63°58' E 008°17'15310.9
2018-Jan-11 03:59N 66°08' E 011°28'510.3
2018-Jan-11 03:30N 66°12' E 011°34'611.5
2018-Jan-11 03:00N 66°14' E 011°47'611.9
2018-Jan-11 02:31N 66°17' E 012°01'612.0
2018-Jan-11 02:00N 66°17' E 012°16'612.1
2018-Jan-11 01:30N 66°15' E 012°30'5 9.4
2018-Jan-11 01:00N 66°12' E 012°39'612.1
2018-Jan-11 00:30N 66°06' E 012°40'3 7.0
2018-Jan-11 00:00N 66°02' E 012°42'611.2
2018-Jan-10 23:30N 66°02' E 012°56'5 9.3
2018-Jan-10 22:58N 65°57' E 012°57'612.7
2018-Jan-10 22:30N 65°54' E 013°08'3 5.4
2018-Jan-10 21:58N 65°51' E 013°11'0 0.0
2018-Jan-10 21:28N 65°51' E 013°11'0 0.0
2018-Jan-10 20:58N 65°51' E 013°11'0 0.0
2018-Jan-10 20:28N 65°51' E 013°11'0 0.0
2018-Jan-10 19:58N 65°51' E 013°11'0 0.0
2018-Jan-10 19:28N 65°51' E 013°11'0 0.0
2018-Jan-10 18:58N 65°51' E 013°11'0 0.0
2018-Jan-10 18:28N 65°51' E 013°11'0 0.0
2018-Jan-10 18:00N 65°51' E 013°11'0 0.0
2018-Jan-10 17:30N 65°51' E 013°11'0 0.0
2018-Jan-10 17:00N 65°51' E 013°11'0 0.0
2018-Jan-10 16:30N 65°51' E 013°11'0 0.0
2018-Jan-10 16:00N 65°51' E 013°11'0 0.0
2018-Jan-10 15:30N 65°51' E 013°11'0 0.0
2018-Jan-10 14:59N 65°51' E 013°11'0 0.0
2018-Jan-10 14:28N 65°51' E 013°11'0 0.0
2018-Jan-10 13:58N 65°51' E 013°11'0 0.0
2018-Jan-10 13:28N 65°51' E 013°11'0 0.0
2018-Jan-10 12:58N 65°51' E 013°11'0 0.0
2018-Jan-10 12:28N 65°51' E 013°11'0 0.0
2018-Jan-10 11:58N 65°51' E 013°11'0 0.0
2018-Jan-10 11:25N 65°51' E 013°11'0 0.0
2018-Jan-10 10:58N 65°51' E 013°11'0 0.0
2018-Jan-10 10:29N 65°51' E 013°11'0 0.0
2018-Jan-10 09:56N 65°51' E 013°11'0 0.0
2018-Jan-10 09:30N 65°51' E 013°11'0 0.0
2018-Jan-10 09:00N 65°51' E 013°11'0 0.0
2018-Jan-10 08:28N 65°51' E 013°11'0 0.0
2018-Jan-10 07:58N 65°51' E 013°11'0 0.0
2018-Jan-10 07:28N 65°51' E 013°11'0 0.0
2018-Jan-10 06:58N 65°51' E 013°11'0 0.0
2018-Jan-10 06:28N 65°51' E 013°11'0 0.0
2018-Jan-10 06:00N 65°51' E 013°11'0 0.0
2018-Jan-10 05:30N 65°51' E 013°11'0 0.0
2018-Jan-10 05:00N 65°51' E 013°11'0 0.0
2018-Jan-10 04:30N 65°51' E 013°11'0 0.0
2018-Jan-10 04:00N 65°51' E 013°11'0 0.0
2018-Jan-10 03:30N 65°51' E 013°11'0 0.0
2018-Jan-10 03:00N 65°51' E 013°11'0 0.0
2018-Jan-10 02:30N 65°51' E 013°11'0 0.0
2018-Jan-10 02:00N 65°51' E 013°11'0 0.0
2018-Jan-10 01:30N 65°51' E 013°11'0 0.0
2018-Jan-10 01:00N 65°51' E 013°11'0 0.0
2018-Jan-10 00:30N 65°51' E 013°11'0 0.0
2018-Jan-09 23:58N 65°51' E 013°11'0 0.0
2018-Jan-09 23:30N 65°51' E 013°11'0 0.0
2018-Jan-09 23:00N 65°51' E 013°11'0 0.0
2018-Jan-09 22:30N 65°51' E 013°11'0 0.0
2018-Jan-09 22:00N 65°51' E 013°11'0 0.0
2018-Jan-09 21:30N 65°51' E 013°11'0 0.0
2018-Jan-09 21:00N 65°51' E 013°11'0 0.0
2018-Jan-09 20:28N 65°51' E 013°11'0 0.0
2018-Jan-09 20:00N 65°51' E 013°11'0 0.0
2018-Jan-09 19:30N 65°51' E 013°11'0 0.0
2018-Jan-09 19:00N 65°51' E 013°11'0 0.0
2018-Jan-09 18:30N 65°51' E 013°11'0 0.0
2018-Jan-09 18:00N 65°51' E 013°11'0 0.0
2018-Jan-09 17:27N 65°51' E 013°11'0 0.0
2018-Jan-09 16:54N 65°51' E 013°11'0 0.0
2018-Jan-09 16:30N 65°51' E 013°11'0 0.0
2018-Jan-09 15:56N 65°51' E 013°11'0 0.0
2018-Jan-09 15:24N 65°51' E 013°11'0 0.0
2018-Jan-09 15:00N 65°51' E 013°11'0 0.0
2018-Jan-09 14:30N 65°51' E 013°11'0 0.0
2018-Jan-09 13:58N 65°51' E 013°11'0 0.0
2018-Jan-09 13:28N 65°51' E 013°11'0 0.0
2018-Jan-09 12:58N 65°51' E 013°11'0 0.0
2018-Jan-09 12:22N 65°51' E 013°11'0 0.0
2018-Jan-09 12:00N 65°51' E 013°11'0 0.0
2018-Jan-09 11:30N 65°51' E 013°11'0 0.0
2018-Jan-09 10:57N 65°51' E 013°11'0 0.0
2018-Jan-09 10:30N 65°51' E 013°11'0 0.0
2018-Jan-09 10:00N 65°51' E 013°11'0 0.0
2018-Jan-09 09:30N 65°51' E 013°11'0 0.0
2018-Jan-09 08:54N 65°51' E 013°11'0 0.0
2018-Jan-09 08:25N 65°51' E 013°11'0 0.0
2018-Jan-09 07:55N 65°51' E 013°11'0 0.0
2018-Jan-09 07:25N 65°51' E 013°11'0 0.0
2018-Jan-09 06:58N 65°51' E 013°11'0 0.0
2018-Jan-09 06:25N 65°51' E 013°11'0 0.0
2018-Jan-09 05:58N 65°51' E 013°11'0 0.0
2018-Jan-09 05:30N 65°51' E 013°11'0 0.0
2018-Jan-09 05:00N 65°51' E 013°11'0 0.0
2018-Jan-09 04:30N 65°51' E 013°11'0 0.0
2018-Jan-09 03:57N 65°51' E 013°11'0 0.0
2018-Jan-09 03:31N 65°51' E 013°11'0 0.0
2018-Jan-09 03:00N 65°51' E 013°11'0 0.0
2018-Jan-09 02:30N 65°51' E 013°11'0 0.0
2018-Jan-09 02:00N 65°51' E 013°11'0 0.0
2018-Jan-09 01:30N 65°51' E 013°11'0 0.0
2018-Jan-09 01:01N 65°51' E 013°11'0 0.0
2018-Jan-09 00:31N 65°51' E 013°11'0 0.0
2018-Jan-09 00:00N 65°51' E 013°11'0 0.0
2018-Jan-08 23:30N 65°51' E 013°11'0 0.0
2018-Jan-08 23:00N 65°51' E 013°11'0 0.0
2018-Jan-08 22:30N 65°51' E 013°11'0 0.0
2018-Jan-08 22:00N 65°51' E 013°11'0 0.0
2018-Jan-08 21:30N 65°51' E 013°11'0 0.0
2018-Jan-08 21:00N 65°51' E 013°11'0 0.0
2018-Jan-08 20:30N 65°51' E 013°11'0 0.0
2018-Jan-08 20:01N 65°51' E 013°11'0 0.0
2018-Jan-08 19:30N 65°51' E 013°11'0 0.0
2018-Jan-08 19:01N 65°51' E 013°11'0 0.0
2018-Jan-08 18:30N 65°51' E 013°11'0 0.0
2018-Jan-08 18:00N 65°51' E 013°11'0 0.0
2018-Jan-08 17:26N 65°51' E 013°11'0 0.0
2018-Jan-08 16:59N 65°51' E 013°11'0 0.0
2018-Jan-08 16:29N 65°51' E 013°11'0 0.0
2018-Jan-08 15:50N 65°51' E 013°11'0 0.0
2018-Jan-08 15:29N 65°51' E 013°11'0 0.0
2018-Jan-08 15:00N 65°51' E 013°11'0 0.0
2018-Jan-08 14:30N 65°51' E 013°11'0 0.0
2018-Jan-08 13:57N 65°51' E 013°11'0 0.0
2018-Jan-08 13:24N 65°51' E 013°11'0 0.0
2018-Jan-08 13:00N 65°51' E 013°11'0 0.0
2018-Jan-08 12:30N 65°51' E 013°11'0 0.0
2018-Jan-08 12:00N 65°51' E 013°11'0 0.0
2018-Jan-08 11:30N 65°51' E 013°11'0 0.1
2018-Jan-08 11:00N 65°51' E 013°11'3 5.8
2018-Jan-08 10:30N 65°54' E 013°08'612.3
2018-Jan-08 10:00N 65°57' E 012°56'5 9.8
2018-Jan-08 09:30N 66°02' E 012°56'611.6
2018-Jan-08 09:00N 66°02' E 012°42'611.1
2018-Jan-08 08:30N 65°59' E 012°30'613.1
2018-Jan-08 08:00N 65°54' E 012°22'713.1
2018-Jan-08 07:30N 65°47' E 012°20'713.2
2018-Jan-08 07:00N 65°41' E 012°15'612.8
2018-Jan-08 06:30N 65°35' E 012°09'612.7
2018-Jan-08 06:00N 65°30' E 011°60'511.0
2018-Jan-08 05:30N 65°25' E 011°58'5 9.5
2018-Jan-08 05:00N 65°20' E 012°02'612.7
2018-Jan-08 04:30N 65°14' E 011°55'612.7
2018-Jan-08 04:00N 65°08' E 011°50'612.5
2018-Jan-08 03:30N 65°03' E 011°43'612.5
2018-Jan-08 03:00N 65°00' E 011°30'611.4
2018-Jan-08 02:30N 64°56' E 011°22'611.2
2018-Jan-08 02:01N 64°51' E 011°14'612.9
2018-Jan-08 01:30N 64°47' E 011°03'612.5
2018-Jan-08 01:00N 64°43' E 010°52'612.7
2018-Jan-08 00:30N 64°40' E 010°39'612.3
2018-Jan-08 00:00N 64°37' E 010°26'4 8.3
2018-Jan-07 23:30N 64°33' E 010°21'4 7.8
2018-Jan-07 23:00N 64°30' E 010°24'4 8.5
2018-Jan-07 22:30N 64°25' E 010°27'510.4
2018-Jan-07 22:00N 64°20' E 010°27'610.9
2018-Jan-07 21:30N 64°16' E 010°20'611.6
2018-Jan-07 21:00N 64°12' E 010°10'612.7
2018-Jan-07 20:30N 64°06' E 010°02'713.0
2018-Jan-07 20:00N 64°03' E 009°49'5 9.3
2018-Jan-07 19:30N 63°58' E 009°47'511.0
2018-Jan-07 19:00N 63°53' E 009°44'612.8
2018-Jan-07 18:30N 63°48' E 009°35'611.7
2018-Jan-07 18:00N 63°44' E 009°25'611.7
2018-Jan-07 17:30N 63°40' E 009°15'510.2
2018-Jan-07 17:00N 63°37' E 009°23'4 9.0
2018-Jan-07 16:30N 63°38' E 009°33'3 5.4
2018-Jan-07 16:00N 63°39' E 009°39'1 2.6
2018-Jan-07 15:30N 63°39' E 009°42'2 3.5
2018-Jan-07 15:00N 63°39' E 009°46'1 2.8
2018-Jan-07 14:30N 63°38' E 009°47'2 4.3
2018-Jan-07 14:00N 63°36' E 009°49'2 4.1
2018-Jan-07 13:30N 63°34' E 009°51'2 3.9
2018-Jan-07 13:01N 63°32' E 009°52'1 1.5
2018-Jan-07 12:30N 63°32' E 009°51'3 6.2
2018-Jan-07 12:00N 63°35' E 009°49'4 8.2
2018-Jan-07 11:29N 63°39' E 009°46'510.2
2018-Jan-07 11:00N 63°38' E 009°35'5 9.4
2018-Jan-07 10:30N 63°35' E 009°26'5 9.4
2018-Jan-07 10:00N 63°33' E 009°17'510.0
2018-Jan-07 09:30N 63°30' E 009°07'5 9.9
2018-Jan-07 09:00N 63°28' E 008°57'510.2
2018-Jan-07 08:30N 63°26' E 008°47'510.2
2018-Jan-07 08:00N 63°25' E 008°36'510.7
2018-Jan-07 07:29N 63°22' E 008°25'611.8
2018-Jan-07 07:00N 63°18' E 008°16'611.5
2018-Jan-07 06:30N 63°15' E 008°05'510.6
2018-Jan-07 06:00N 63°13' E 007°55'510.4
2018-Jan-07 05:30N 63°10' E 007°45'5 9.9
2018-Jan-07 05:01N 63°06' E 007°41'5 9.9
2018-Jan-07 04:31N 63°01' E 007°44'3 5.0
2018-Jan-07 04:00N 62°58' E 007°44'0 0.0
2018-Jan-07 03:30N 62°58' E 007°44'0 0.0
2018-Jan-07 03:00N 62°58' E 007°44'0 0.0
2018-Jan-07 02:30N 62°58' E 007°44'0 0.0
2018-Jan-07 02:00N 62°58' E 007°44'0 0.0
2018-Jan-07 01:30N 62°58' E 007°44'6 6.5
2018-Jan-07 00:31N 63°04' E 007°41'4 7.0
2018-Jan-07 00:00N 63°08' E 007°37'713.5
2018-Jan-06 23:31N 63°04' E 007°24'713.7
2018-Jan-06 23:01N 63°02' E 007°10'713.7
2018-Jan-06 22:30N 62°59' E 006°56'612.4
2018-Jan-06 22:00N 62°55' E 006°47'713.8
2018-Jan-06 21:30N 62°49' E 006°38'714.2
2018-Jan-06 21:00N 62°43' E 006°30'714.1
2018-Jan-06 20:30N 62°37' E 006°20'611.3
2018-Jan-06 20:00N 62°34' E 006°11'611.5
2018-Jan-06 19:31N 62°29' E 006°05'713.2
2018-Jan-06 19:00N 62°26' E 005°53'510.6
2018-Jan-06 18:30N 62°20' E 005°48'0 0.8
2018-Jan-06 18:00N 62°20' E 005°49'0 0.0
2018-Jan-06 17:30N 62°20' E 005°49'0 0.0
2018-Jan-06 17:00N 62°20' E 005°49'0 0.0
2018-Jan-06 16:30N 62°20' E 005°49'0 0.0
2018-Jan-06 16:00N 62°20' E 005°49'0 0.0
2018-Jan-06 15:30N 62°20' E 005°49'0 0.0
2018-Jan-06 15:00N 62°20' E 005°49'0 0.0
2018-Jan-06 14:30N 62°20' E 005°49'0 0.0
2018-Jan-06 14:00N 62°20' E 005°49'0 0.0
2018-Jan-06 13:30N 62°20' E 005°49'0 0.0
2018-Jan-06 13:00N 62°20' E 005°49'0 0.0
2018-Jan-06 12:28N 62°20' E 005°49'0 0.6
2018-Jan-06 12:00N 62°20' E 005°50'1 1.2
2018-Jan-06 11:30N 62°21' E 005°49'510.7
2018-Jan-06 11:01N 62°26' E 005°53'3 6.8
2018-Jan-06 10:30N 62°27' E 005°59'4 8.6
2018-Jan-06 10:00N 62°28' E 005°50'612.1
2018-Jan-06 09:30N 62°31' E 005°39'510.2
2018-Jan-06 09:00N 62°32' E 005°28'5 9.5
2018-Jan-06 08:30N 62°28' E 005°20'5 9.9
2018-Jan-06 08:00N 62°25' E 005°12'5 9.4
2018-Jan-06 07:30N 62°22' E 005°05'510.7
2018-Jan-06 07:00N 62°18' E 004°56'611.4
2018-Jan-06 06:30N 62°15' E 004°47'611.2
2018-Jan-06 06:00N 62°11' E 004°38'510.7
2018-Jan-06 05:31N 62°07' E 004°30'51011.6
2018-Jan-04 09:27N 53°38' E 004°50'613.3
2018-Jan-04 08:59N 53°32' E 004°46'613.2
2018-Jan-04 08:30N 53°26' E 004°42'713.3
2018-Jan-04 08:00N 53°20' E 004°38'713.1
2018-Jan-04 07:26N 53°13' E 004°32'613.1
2018-Jan-04 07:01N 53°08' E 004°28'713.2
2018-Jan-04 06:30N 53°02' E 004°24'713.2
2018-Jan-04 06:01N 52°56' E 004°20'713.8
2018-Jan-04 05:30N 52°50' E 004°14'713.9
2018-Jan-04 05:00N 52°44' E 004°08'713.7
2018-Jan-04 04:30N 52°39' E 004°01'713.5
2018-Jan-04 04:00N 52°33' E 003°56'713.4
2018-Jan-04 03:30N 52°26' E 003°54'713.3
2018-Jan-04 03:00N 52°20' E 003°52'612.5
2018-Jan-04 02:30N 52°13' E 003°53'612.2
2018-Jan-04 02:00N 52°07' E 003°55'611.2
2018-Jan-04 01:30N 52°03' E 003°60'510.1
2018-Jan-04 01:00N 51°59' E 004°05'5 9.5
2018-Jan-04 00:30N 51°56' E 004°12'510.3
2018-Jan-04 00:00N 51°53' E 004°19'0 0.4
2018-Jan-03 23:00N 51°54' E 004°18'0 0.0
2018-Jan-03 22:30N 51°54' E 004°18'0 0.0
2018-Jan-03 22:00N 51°54' E 004°18'0 0.0
2018-Jan-03 21:30N 51°54' E 004°18'0 0.0
2018-Jan-03 21:00N 51°54' E 004°18'0 0.0
2018-Jan-03 20:30N 51°54' E 004°18'0 0.0
2018-Jan-03 20:00N 51°54' E 004°18'0 0.0
2018-Jan-03 19:30N 51°54' E 004°18'0 0.0
2018-Jan-03 19:00N 51°54' E 004°18'0 0.0
2018-Jan-03 18:30N 51°54' E 004°18'0 0.0
2018-Jan-03 18:00N 51°54' E 004°18'0 0.0
2018-Jan-03 17:30N 51°54' E 004°18'0 0.0
2018-Jan-03 17:00N 51°54' E 004°18'0 0.0
2018-Jan-03 16:30N 51°54' E 004°18'0 0.0
2018-Jan-03 16:00N 51°54' E 004°18'0 0.0
2018-Jan-03 15:30N 51°54' E 004°18'0 0.0
2018-Jan-03 15:00N 51°54' E 004°18'0 0.0
2018-Jan-03 14:30N 51°54' E 004°18'1 1.0
2018-Jan-03 14:01N 51°54' E 004°19'3 6.3
2018-Jan-03 13:31N 51°54' E 004°24'1 1.5
2018-Jan-03 12:59N 51°53' E 004°25'0 0.0
2018-Jan-03 12:29N 51°53' E 004°25'0 0.0
2018-Jan-03 11:59N 51°53' E 004°25'0 0.0
2018-Jan-03 11:29N 51°53' E 004°25'0 0.0
2018-Jan-03 10:59N 51°53' E 004°25'0 0.0
2018-Jan-03 10:29N 51°53' E 004°25'0 0.0
2018-Jan-03 09:59N 51°53' E 004°25'0 0.0
2018-Jan-03 09:29N 51°53' E 004°25'0 0.0
2018-Jan-03 08:59N 51°53' E 004°25'0 0.0
2018-Jan-03 08:29N 51°53' E 004°25'0 0.0
2018-Jan-03 07:59N 51°53' E 004°25'0 0.0
2018-Jan-03 07:29N 51°53' E 004°25'0 0.0
2018-Jan-03 06:59N 51°53' E 004°25'0 0.0
2018-Jan-03 06:29N 51°53' E 004°25'0 0.0
2018-Jan-03 05:59N 51°53' E 004°25'0 0.0
2018-Jan-03 05:29N 51°53' E 004°25'0 0.0
2018-Jan-03 04:59N 51°53' E 004°25'0 0.0
2018-Jan-03 04:29N 51°53' E 004°25'0 0.0
2018-Jan-03 03:59N 51°53' E 004°25'0 0.0
2018-Jan-03 02:59N 51°53' E 004°25'0 0.0
2018-Jan-03 02:29N 51°53' E 004°25'0 0.0
2018-Jan-03 01:59N 51°53' E 004°25'0 0.0
2018-Jan-03 01:29N 51°53' E 004°25'0 0.0
2018-Jan-03 00:59N 51°53' E 004°25'0 0.0
2018-Jan-03 00:29N 51°53' E 004°25'0 0.0
2018-Jan-02 23:59N 51°53' E 004°25'0 0.0
2018-Jan-02 23:29N 51°53' E 004°25'0 0.0
2018-Jan-02 22:59N 51°53' E 004°25'0 0.0
2018-Jan-02 22:29N 51°53' E 004°25'0 0.0
2018-Jan-02 21:59N 51°53' E 004°25'0 0.0
2018-Jan-02 21:29N 51°53' E 004°25'0 0.0
2018-Jan-02 20:59N 51°53' E 004°25'0 0.0
2018-Jan-02 20:29N 51°53' E 004°25'0 0.0
2018-Jan-02 19:59N 51°53' E 004°25'0 0.0
2018-Jan-02 19:29N 51°53' E 004°25'0 0.0
2018-Jan-02 18:59N 51°53' E 004°25'0 0.0
2018-Jan-02 18:29N 51°53' E 004°25'0 0.0
2018-Jan-02 17:59N 51°53' E 004°25'0 0.0
2018-Jan-02 17:29N 51°53' E 004°25'0 0.0
2018-Jan-02 16:59N 51°53' E 004°25'0 0.0
2018-Jan-02 16:29N 51°53' E 004°25'0 0.0
2018-Jan-02 15:59N 51°53' E 004°25'0 0.0
2018-Jan-02 15:29N 51°53' E 004°25'  
Track history (hours):
 
Tides and Currents Weather Stations Pressure Air Temp Water Temp Dewpoint Dewpoint Depression Visibility Wind Speed Wind Dir Waves Ship Positions

Katharina

Last reported at 2018-Jan-12 15:00 UTC. Time now 2018-Jan-21 20:40 UTC.
Position N 62°15' E 004°43'.
Warning: this ship's position is 9 days out of date.

Length 146 m; draft 7 m.

Type: Ship (hazmat cat A). MMSI: 305305000.

Date/timePositionNaut miles runAvg speedWind from/ knotsBaromVisibWave heightAir tempDewpointWater temp
2018-Jan-12 15:00N 62°15' E 004°43'510.7
2018-Jan-12 14:30N 62°19' E 004°52'510.2
2018-Jan-12 14:00N 62°22' E 005°00'510.9
2018-Jan-12 13:30N 62°26' E 005°09'510.9
2018-Jan-12 13:00N 62°29' E 005°18'611.4
2018-Jan-12 12:30N 62°33' E 005°27'611.8
2018-Jan-12 12:00N 62°37' E 005°37'611.8
2018-Jan-12 11:30N 62°41' E 005°47'611.5
2018-Jan-12 11:00N 62°44' E 005°56'611.3
2018-Jan-12 10:30N 62°48' E 006°06'611.4
2018-Jan-12 10:00N 62°52' E 006°15'611.7
2018-Jan-12 09:30N 62°56' E 006°25'611.9
2018-Jan-12 09:00N 62°60' E 006°34'612.0
2018-Jan-12 08:30N 63°02' E 006°46'612.0
2018-Jan-12 08:00N 63°06' E 006°57'612.0
2018-Jan-12 07:30N 63°09' E 007°08'612.0
2018-Jan-12 07:00N 63°12' E 007°19'611.3
2018-Jan-12 06:30N 63°15' E 007°31'611.2
2018-Jan-12 06:00N 63°13' E 007°43'4 8.1
2018-Jan-12 05:30N 63°09' E 007°42'611.8
2018-Jan-12 05:00N 63°04' E 007°41'510.8
2018-Jan-12 04:30N 62°58' E 007°44'0 0.4
2018-Jan-12 04:00N 62°58' E 007°44'0 0.0
2018-Jan-12 03:30N 62°58' E 007°44'0 0.0
2018-Jan-12 03:00N 62°58' E 007°44'0 0.0
2018-Jan-12 02:30N 62°58' E 007°44'0 0.0
2018-Jan-12 02:00N 62°58' E 007°44'0 0.0
2018-Jan-12 01:30N 62°58' E 007°44'0 0.0
2018-Jan-12 01:00N 62°58' E 007°44'0 0.2
2018-Jan-12 00:30N 62°58' E 007°44'3 5.2
2018-Jan-12 00:00N 63°01' E 007°44'511.1
2018-Jan-11 23:30N 63°06' E 007°41'611.2
2018-Jan-11 23:00N 63°12' E 007°45'4 8.9
2018-Jan-11 22:30N 63°15' E 007°38'510.6
2018-Jan-11 22:00N 63°20' E 007°35'510.4
2018-Jan-11 21:30N 63°25' E 007°36'510.9
2018-Jan-11 21:01N 63°31' E 007°38'611.4
2018-Jan-11 20:30N 63°35' E 007°45'611.1
2018-Jan-11 20:00N 63°40' E 007°51'510.7
2018-Jan-11 19:30N 63°45' E 007°58'510.6
2018-Jan-11 19:00N 63°49' E 008°04'511.0
2018-Jan-11 18:30N 63°54' E 008°11'510.6
2018-Jan-11 18:00N 63°58' E 008°17'15310.9
2018-Jan-11 03:59N 66°08' E 011°28'510.3
2018-Jan-11 03:30N 66°12' E 011°34'611.5
2018-Jan-11 03:00N 66°14' E 011°47'611.9
2018-Jan-11 02:31N 66°17' E 012°01'612.0
2018-Jan-11 02:00N 66°17' E 012°16'612.1
2018-Jan-11 01:30N 66°15' E 012°30'5 9.4
2018-Jan-11 01:00N 66°12' E 012°39'612.1
2018-Jan-11 00:30N 66°06' E 012°40'3 7.0
2018-Jan-11 00:00N 66°02' E 012°42'611.2
2018-Jan-10 23:30N 66°02' E 012°56'5 9.3
2018-Jan-10 22:58N 65°57' E 012°57'612.7
2018-Jan-10 22:30N 65°54' E 013°08'3 5.4
2018-Jan-10 21:58N 65°51' E 013°11'0 0.0
2018-Jan-10 21:28N 65°51' E 013°11'0 0.0
2018-Jan-10 20:58N 65°51' E 013°11'0 0.0
2018-Jan-10 20:28N 65°51' E 013°11'0 0.0
2018-Jan-10 19:58N 65°51' E 013°11'0 0.0
2018-Jan-10 19:28N 65°51' E 013°11'0 0.0
2018-Jan-10 18:58N 65°51' E 013°11'0 0.0
2018-Jan-10 18:28N 65°51' E 013°11'0 0.0
2018-Jan-10 18:00N 65°51' E 013°11'0 0.0
2018-Jan-10 17:30N 65°51' E 013°11'0 0.0
2018-Jan-10 17:00N 65°51' E 013°11'0 0.0
2018-Jan-10 16:30N 65°51' E 013°11'0 0.0
2018-Jan-10 16:00N 65°51' E 013°11'0 0.0
2018-Jan-10 15:30N 65°51' E 013°11'0 0.0
2018-Jan-10 14:59N 65°51' E 013°11'0 0.0
2018-Jan-10 14:28N 65°51' E 013°11'0 0.0
2018-Jan-10 13:58N 65°51' E 013°11'0 0.0
2018-Jan-10 13:28N 65°51' E 013°11'0 0.0
2018-Jan-10 12:58N 65°51' E 013°11'0 0.0
2018-Jan-10 12:28N 65°51' E 013°11'0 0.0
2018-Jan-10 11:58N 65°51' E 013°11'0 0.0
2018-Jan-10 11:25N 65°51' E 013°11'0 0.0
2018-Jan-10 10:58N 65°51' E 013°11'0 0.0
2018-Jan-10 10:29N 65°51' E 013°11'0 0.0
2018-Jan-10 09:56N 65°51' E 013°11'0 0.0
2018-Jan-10 09:30N 65°51' E 013°11'0 0.0
2018-Jan-10 09:00N 65°51' E 013°11'0 0.0
2018-Jan-10 08:28N 65°51' E 013°11'0 0.0
2018-Jan-10 07:58N 65°51' E 013°11'0 0.0
2018-Jan-10 07:28N 65°51' E 013°11'0 0.0
2018-Jan-10 06:58N 65°51' E 013°11'0 0.0
2018-Jan-10 06:28N 65°51' E 013°11'0 0.0
2018-Jan-10 06:00N 65°51' E 013°11'0 0.0
2018-Jan-10 05:30N 65°51' E 013°11'0 0.0
2018-Jan-10 05:00N 65°51' E 013°11'0 0.0
2018-Jan-10 04:30N 65°51' E 013°11'0 0.0
2018-Jan-10 04:00N 65°51' E 013°11'0 0.0
2018-Jan-10 03:30N 65°51' E 013°11'0 0.0
2018-Jan-10 03:00N 65°51' E 013°11'0 0.0
2018-Jan-10 02:30N 65°51' E 013°11'0 0.0
2018-Jan-10 02:00N 65°51' E 013°11'0 0.0
2018-Jan-10 01:30N 65°51' E 013°11'0 0.0
2018-Jan-10 01:00N 65°51' E 013°11'0 0.0
2018-Jan-10 00:30N 65°51' E 013°11'0 0.0
2018-Jan-09 23:58N 65°51' E 013°11'0 0.0
2018-Jan-09 23:30N 65°51' E 013°11'0 0.0
2018-Jan-09 23:00N 65°51' E 013°11'0 0.0
2018-Jan-09 22:30N 65°51' E 013°11'0 0.0
2018-Jan-09 22:00N 65°51' E 013°11'0 0.0
2018-Jan-09 21:30N 65°51' E 013°11'0 0.0
2018-Jan-09 21:00N 65°51' E 013°11'0 0.0
2018-Jan-09 20:28N 65°51' E 013°11'0 0.0
2018-Jan-09 20:00N 65°51' E 013°11'0 0.0
2018-Jan-09 19:30N 65°51' E 013°11'0 0.0
2018-Jan-09 19:00N 65°51' E 013°11'0 0.0
2018-Jan-09 18:30N 65°51' E 013°11'0 0.0
2018-Jan-09 18:00N 65°51' E 013°11'0 0.0
2018-Jan-09 17:27N 65°51' E 013°11'0 0.0
2018-Jan-09 16:54N 65°51' E 013°11'0 0.0
2018-Jan-09 16:30N 65°51' E 013°11'0 0.0
2018-Jan-09 15:56N 65°51' E 013°11'0 0.0
2018-Jan-09 15:24N 65°51' E 013°11'0 0.0
2018-Jan-09 15:00N 65°51' E 013°11'0 0.0
2018-Jan-09 14:30N 65°51' E 013°11'0 0.0
2018-Jan-09 13:58N 65°51' E 013°11'0 0.0
2018-Jan-09 13:28N 65°51' E 013°11'0 0.0
2018-Jan-09 12:58N 65°51' E 013°11'0 0.0
2018-Jan-09 12:22N 65°51' E 013°11'0 0.0
2018-Jan-09 12:00N 65°51' E 013°11'0 0.0
2018-Jan-09 11:30N 65°51' E 013°11'0 0.0
2018-Jan-09 10:57N 65°51' E 013°11'0 0.0
2018-Jan-09 10:30N 65°51' E 013°11'0 0.0
2018-Jan-09 10:00N 65°51' E 013°11'0 0.0
2018-Jan-09 09:30N 65°51' E 013°11'0 0.0
2018-Jan-09 08:54N 65°51' E 013°11'0 0.0
2018-Jan-09 08:25N 65°51' E 013°11'0 0.0
2018-Jan-09 07:55N 65°51' E 013°11'0 0.0
2018-Jan-09 07:25N 65°51' E 013°11'0 0.0
2018-Jan-09 06:58N 65°51' E 013°11'0 0.0
2018-Jan-09 06:25N 65°51' E 013°11'0 0.0
2018-Jan-09 05:58N 65°51' E 013°11'0 0.0
2018-Jan-09 05:30N 65°51' E 013°11'0 0.0
2018-Jan-09 05:00N 65°51' E 013°11'0 0.0
2018-Jan-09 04:30N 65°51' E 013°11'0 0.0
2018-Jan-09 03:57N 65°51' E 013°11'0 0.0
2018-Jan-09 03:31N 65°51' E 013°11'0 0.0
2018-Jan-09 03:00N 65°51' E 013°11'0 0.0
2018-Jan-09 02:30N 65°51' E 013°11'0 0.0
2018-Jan-09 02:00N 65°51' E 013°11'0 0.0
2018-Jan-09 01:30N 65°51' E 013°11'0 0.0
2018-Jan-09 01:01N 65°51' E 013°11'0 0.0
2018-Jan-09 00:31N 65°51' E 013°11'0 0.0
2018-Jan-09 00:00N 65°51' E 013°11'0 0.0
2018-Jan-08 23:30N 65°51' E 013°11'0 0.0
2018-Jan-08 23:00N 65°51' E 013°11'0 0.0
2018-Jan-08 22:30N 65°51' E 013°11'0 0.0
2018-Jan-08 22:00N 65°51' E 013°11'0 0.0
2018-Jan-08 21:30N 65°51' E 013°11'0 0.0
2018-Jan-08 21:00N 65°51' E 013°11'0 0.0
2018-Jan-08 20:30N 65°51' E 013°11'0 0.0
2018-Jan-08 20:01N 65°51' E 013°11'0 0.0
2018-Jan-08 19:30N 65°51' E 013°11'0 0.0
2018-Jan-08 19:01N 65°51' E 013°11'0 0.0
2018-Jan-08 18:30N 65°51' E 013°11'0 0.0
2018-Jan-08 18:00N 65°51' E 013°11'0 0.0
2018-Jan-08 17:26N 65°51' E 013°11'0 0.0
2018-Jan-08 16:59N 65°51' E 013°11'0 0.0
2018-Jan-08 16:29N 65°51' E 013°11'0 0.0
2018-Jan-08 15:50N 65°51' E 013°11'0 0.0
2018-Jan-08 15:29N 65°51' E 013°11'0 0.0
2018-Jan-08 15:00N 65°51' E 013°11'0 0.0
2018-Jan-08 14:30N 65°51' E 013°11'0 0.0
2018-Jan-08 13:57N 65°51' E 013°11'0 0.0
2018-Jan-08 13:24N 65°51' E 013°11'0 0.0
2018-Jan-08 13:00N 65°51' E 013°11'0 0.0
2018-Jan-08 12:30N 65°51' E 013°11'0 0.0
2018-Jan-08 12:00N 65°51' E 013°11'0 0.0
2018-Jan-08 11:30N 65°51' E 013°11'0 0.1
2018-Jan-08 11:00N 65°51' E 013°11'3 5.8
2018-Jan-08 10:30N 65°54' E 013°08'612.3
2018-Jan-08 10:00N 65°57' E 012°56'5 9.8
2018-Jan-08 09:30N 66°02' E 012°56'611.6
2018-Jan-08 09:00N 66°02' E 012°42'611.1
2018-Jan-08 08:30N 65°59' E 012°30'613.1
2018-Jan-08 08:00N 65°54' E 012°22'713.1
2018-Jan-08 07:30N 65°47' E 012°20'713.2
2018-Jan-08 07:00N 65°41' E 012°15'612.8
2018-Jan-08 06:30N 65°35' E 012°09'612.7
2018-Jan-08 06:00N 65°30' E 011°60'511.0
2018-Jan-08 05:30N 65°25' E 011°58'5 9.5
2018-Jan-08 05:00N 65°20' E 012°02'612.7
2018-Jan-08 04:30N 65°14' E 011°55'612.7
2018-Jan-08 04:00N 65°08' E 011°50'612.5
2018-Jan-08 03:30N 65°03' E 011°43'612.5
2018-Jan-08 03:00N 65°00' E 011°30'611.4
2018-Jan-08 02:30N 64°56' E 011°22'611.2
2018-Jan-08 02:01N 64°51' E 011°14'612.9
2018-Jan-08 01:30N 64°47' E 011°03'612.5
2018-Jan-08 01:00N 64°43' E 010°52'612.7
2018-Jan-08 00:30N 64°40' E 010°39'612.3
2018-Jan-08 00:00N 64°37' E 010°26'4 8.3
2018-Jan-07 23:30N 64°33' E 010°21'4 7.8
2018-Jan-07 23:00N 64°30' E 010°24'4 8.5
2018-Jan-07 22:30N 64°25' E 010°27'510.4
2018-Jan-07 22:00N 64°20' E 010°27'610.9
2018-Jan-07 21:30N 64°16' E 010°20'611.6
2018-Jan-07 21:00N 64°12' E 010°10'612.7
2018-Jan-07 20:30N 64°06' E 010°02'713.0
2018-Jan-07 20:00N 64°03' E 009°49'5 9.3
2018-Jan-07 19:30N 63°58' E 009°47'511.0
2018-Jan-07 19:00N 63°53' E 009°44'612.8
2018-Jan-07 18:30N 63°48' E 009°35'611.7
2018-Jan-07 18:00N 63°44' E 009°25'611.7
2018-Jan-07 17:30N 63°40' E 009°15'510.2
2018-Jan-07 17:00N 63°37' E 009°23'4 9.0
2018-Jan-07 16:30N 63°38' E 009°33'3 5.4
2018-Jan-07 16:00N 63°39' E 009°39'1 2.6
2018-Jan-07 15:30N 63°39' E 009°42'2 3.5
2018-Jan-07 15:00N 63°39' E 009°46'1 2.8
2018-Jan-07 14:30N 63°38' E 009°47'2 4.3
2018-Jan-07 14:00N 63°36' E 009°49'2 4.1
2018-Jan-07 13:30N 63°34' E 009°51'2 3.9
2018-Jan-07 13:01N 63°32' E 009°52'1 1.5
2018-Jan-07 12:30N 63°32' E 009°51'3 6.2
2018-Jan-07 12:00N 63°35' E 009°49'4 8.2
2018-Jan-07 11:29N 63°39' E 009°46'510.2
2018-Jan-07 11:00N 63°38' E 009°35'5 9.4
2018-Jan-07 10:30N 63°35' E 009°26'5 9.4
2018-Jan-07 10:00N 63°33' E 009°17'510.0
2018-Jan-07 09:30N 63°30' E 009°07'5 9.9
2018-Jan-07 09:00N 63°28' E 008°57'510.2
2018-Jan-07 08:30N 63°26' E 008°47'510.2
2018-Jan-07 08:00N 63°25' E 008°36'510.7
2018-Jan-07 07:29N 63°22' E 008°25'611.8
2018-Jan-07 07:00N 63°18' E 008°16'611.5
2018-Jan-07 06:30N 63°15' E 008°05'510.6
2018-Jan-07 06:00N 63°13' E 007°55'510.4
2018-Jan-07 05:30N 63°10' E 007°45'5 9.9
2018-Jan-07 05:01N 63°06' E 007°41'5 9.9
2018-Jan-07 04:31N 63°01' E 007°44'3 5.0
2018-Jan-07 04:00N 62°58' E 007°44'0 0.0
2018-Jan-07 03:30N 62°58' E 007°44'0 0.0
2018-Jan-07 03:00N 62°58' E 007°44'0 0.0
2018-Jan-07 02:30N 62°58' E 007°44'0 0.0
2018-Jan-07 02:00N 62°58' E 007°44'0 0.0
2018-Jan-07 01:30N 62°58' E 007°44'6 6.5
2018-Jan-07 00:31N 63°04' E 007°41'4 7.0
2018-Jan-07 00:00N 63°08' E 007°37'713.5
2018-Jan-06 23:31N 63°04' E 007°24'713.7
2018-Jan-06 23:01N 63°02' E 007°10'713.7
2018-Jan-06 22:30N 62°59' E 006°56'612.4
2018-Jan-06 22:00N 62°55' E 006°47'713.8
2018-Jan-06 21:30N 62°49' E 006°38'714.2
2018-Jan-06 21:00N 62°43' E 006°30'714.1
2018-Jan-06 20:30N 62°37' E 006°20'611.3
2018-Jan-06 20:00N 62°34' E 006°11'611.5
2018-Jan-06 19:31N 62°29' E 006°05'713.2
2018-Jan-06 19:00N 62°26' E 005°53'510.6
2018-Jan-06 18:30N 62°20' E 005°48'0 0.8
2018-Jan-06 18:00N 62°20' E 005°49'0 0.0
2018-Jan-06 17:30N 62°20' E 005°49'0 0.0
2018-Jan-06 17:00N 62°20' E 005°49'0 0.0
2018-Jan-06 16:30N 62°20' E 005°49'0 0.0
2018-Jan-06 16:00N 62°20' E 005°49'0 0.0
2018-Jan-06 15:30N 62°20' E 005°49'0 0.0
2018-Jan-06 15:00N 62°20' E 005°49'0 0.0
2018-Jan-06 14:30N 62°20' E 005°49'0 0.0
2018-Jan-06 14:00N 62°20' E 005°49'0 0.0
2018-Jan-06 13:30N 62°20' E 005°49'0 0.0
2018-Jan-06 13:00N 62°20' E 005°49'0 0.0
2018-Jan-06 12:28N 62°20' E 005°49'0 0.6
2018-Jan-06 12:00N 62°20' E 005°50'1 1.2
2018-Jan-06 11:30N 62°21' E 005°49'510.7
2018-Jan-06 11:01N 62°26' E 005°53'3 6.8
2018-Jan-06 10:30N 62°27' E 005°59'4 8.6
2018-Jan-06 10:00N 62°28' E 005°50'612.1
2018-Jan-06 09:30N 62°31' E 005°39'510.2
2018-Jan-06 09:00N 62°32' E 005°28'5 9.5
2018-Jan-06 08:30N 62°28' E 005°20'5 9.9
2018-Jan-06 08:00N 62°25' E 005°12'5 9.4
2018-Jan-06 07:30N 62°22' E 005°05'510.7
2018-Jan-06 07:00N 62°18' E 004°56'611.4
2018-Jan-06 06:30N 62°15' E 004°47'611.2
2018-Jan-06 06:00N 62°11' E 004°38'510.7
2018-Jan-06 05:31N 62°07' E 004°30'51011.6
2018-Jan-04 09:27N 53°38' E 004°50'613.3
2018-Jan-04 08:59N 53°32' E 004°46'613.2
2018-Jan-04 08:30N 53°26' E 004°42'713.3
2018-Jan-04 08:00N 53°20' E 004°38'713.1
2018-Jan-04 07:26N 53°13' E 004°32'613.1
2018-Jan-04 07:01N 53°08' E 004°28'713.2
2018-Jan-04 06:30N 53°02' E 004°24'713.2
2018-Jan-04 06:01N 52°56' E 004°20'713.8
2018-Jan-04 05:30N 52°50' E 004°14'713.9
2018-Jan-04 05:00N 52°44' E 004°08'713.7
2018-Jan-04 04:30N 52°39' E 004°01'713.5
2018-Jan-04 04:00N 52°33' E 003°56'713.4
2018-Jan-04 03:30N 52°26' E 003°54'713.3
2018-Jan-04 03:00N 52°20' E 003°52'612.5
2018-Jan-04 02:30N 52°13' E 003°53'612.2
2018-Jan-04 02:00N 52°07' E 003°55'611.2
2018-Jan-04 01:30N 52°03' E 003°60'510.1
2018-Jan-04 01:00N 51°59' E 004°05'5 9.5
2018-Jan-04 00:30N 51°56' E 004°12'510.3
2018-Jan-04 00:00N 51°53' E 004°19'0 0.4
2018-Jan-03 23:00N 51°54' E 004°18'0 0.0
2018-Jan-03 22:30N 51°54' E 004°18'0 0.0
2018-Jan-03 22:00N 51°54' E 004°18'0 0.0
2018-Jan-03 21:30N 51°54' E 004°18'0 0.0
2018-Jan-03 21:00N 51°54' E 004°18'0 0.0
2018-Jan-03 20:30N 51°54' E 004°18'0 0.0
2018-Jan-03 20:00N 51°54' E 004°18'0 0.0
2018-Jan-03 19:30N 51°54' E 004°18'0 0.0
2018-Jan-03 19:00N 51°54' E 004°18'0 0.0
2018-Jan-03 18:30N 51°54' E 004°18'0 0.0
2018-Jan-03 18:00N 51°54' E 004°18'0 0.0
2018-Jan-03 17:30N 51°54' E 004°18'0 0.0
2018-Jan-03 17:00N 51°54' E 004°18'0 0.0
2018-Jan-03 16:30N 51°54' E 004°18'0 0.0
2018-Jan-03 16:00N 51°54' E 004°18'0 0.0
2018-Jan-03 15:30N 51°54' E 004°18'0 0.0
2018-Jan-03 15:00N 51°54' E 004°18'0 0.0
2018-Jan-03 14:30N 51°54' E 004°18'1 1.0
2018-Jan-03 14:01N 51°54' E 004°19'3 6.3
2018-Jan-03 13:31N 51°54' E 004°24'1 1.5
2018-Jan-03 12:59N 51°53' E 004°25'0 0.0
2018-Jan-03 12:29N 51°53' E 004°25'0 0.0
2018-Jan-03 11:59N 51°53' E 004°25'0 0.0
2018-Jan-03 11:29N 51°53' E 004°25'0 0.0
2018-Jan-03 10:59N 51°53' E 004°25'0 0.0
2018-Jan-03 10:29N 51°53' E 004°25'0 0.0
2018-Jan-03 09:59N 51°53' E 004°25'0 0.0
2018-Jan-03 09:29N 51°53' E 004°25'0 0.0
2018-Jan-03 08:59N 51°53' E 004°25'0 0.0
2018-Jan-03 08:29N 51°53' E 004°25'0 0.0
2018-Jan-03 07:59N 51°53' E 004°25'0 0.0
2018-Jan-03 07:29N 51°53' E 004°25'0 0.0
2018-Jan-03 06:59N 51°53' E 004°25'0 0.0
2018-Jan-03 06:29N 51°53' E 004°25'0 0.0
2018-Jan-03 05:59N 51°53' E 004°25'0 0.0
2018-Jan-03 05:29N 51°53' E 004°25'0 0.0
2018-Jan-03 04:59N 51°53' E 004°25'0 0.0
2018-Jan-03 04:29N 51°53' E 004°25'0 0.0
2018-Jan-03 03:59N 51°53' E 004°25'0 0.0
2018-Jan-03 02:59N 51°53' E 004°25'0 0.0
2018-Jan-03 02:29N 51°53' E 004°25'0 0.0
2018-Jan-03 01:59N 51°53' E 004°25'0 0.0
2018-Jan-03 01:29N 51°53' E 004°25'0 0.0
2018-Jan-03 00:59N 51°53' E 004°25'0 0.0
2018-Jan-03 00:29N 51°53' E 004°25'0 0.0
2018-Jan-02 23:59N 51°53' E 004°25'0 0.0
2018-Jan-02 23:29N 51°53' E 004°25'0 0.0
2018-Jan-02 22:59N 51°53' E 004°25'0 0.0
2018-Jan-02 22:29N 51°53' E 004°25'0 0.0
2018-Jan-02 21:59N 51°53' E 004°25'0 0.0
2018-Jan-02 21:29N 51°53' E 004°25'0 0.0
2018-Jan-02 20:59N 51°53' E 004°25'0 0.0
2018-Jan-02 20:29N 51°53' E 004°25'0 0.0
2018-Jan-02 19:59N 51°53' E 004°25'0 0.0
2018-Jan-02 19:29N 51°53' E 004°25'0 0.0
2018-Jan-02 18:59N 51°53' E 004°25'0 0.0
2018-Jan-02 18:29N 51°53' E 004°25'0 0.0
2018-Jan-02 17:59N 51°53' E 004°25'0 0.0
2018-Jan-02 17:29N 51°53' E 004°25'0 0.0
2018-Jan-02 16:59N 51°53' E 004°25'0 0.0
2018-Jan-02 16:29N 51°53' E 004°25'0 0.0
2018-Jan-02 15:59N 51°53' E 004°25'0 0.0
2018-Jan-02 15:29N 51°53' E 004°25'  

Dump ship's entire track history